sensor_id;sensor_type;location;lat;lon;timestamp;P1;durP1;ratioP1;P2;durP2;ratioP2
40635;SDS011;26642;55.766;37.828;2024-03-25T00:01:42;3.33;;;3.03;;
40635;SDS011;26642;55.766;37.828;2024-03-25T00:04:09;2.35;;;2.15;;
40635;SDS011;26642;55.766;37.828;2024-03-25T00:06:35;2.50;;;2.30;;
40635;SDS011;26642;55.766;37.828;2024-03-25T00:09:03;3.35;;;2.10;;
40635;SDS011;26642;55.766;37.828;2024-03-25T00:11:30;2.35;;;2.15;;
40635;SDS011;26642;55.766;37.828;2024-03-25T00:13:57;2.63;;;2.05;;
40635;SDS011;26642;55.766;37.828;2024-03-25T00:16:24;1.80;;;1.70;;
40635;SDS011;26642;55.766;37.828;2024-03-25T00:18:51;1.50;;;1.40;;
40635;SDS011;26642;55.766;37.828;2024-03-25T00:21:18;1.52;;;1.42;;
40635;SDS011;26642;55.766;37.828;2024-03-25T00:23:45;1.92;;;1.30;;
40635;SDS011;26642;55.766;37.828;2024-03-25T00:26:13;0.90;;;0.90;;
40635;SDS011;26642;55.766;37.828;2024-03-25T00:28:40;1.10;;;1.00;;
40635;SDS011;26642;55.766;37.828;2024-03-25T00:31:06;0.90;;;0.90;;
40635;SDS011;26642;55.766;37.828;2024-03-25T00:33:33;1.00;;;0.93;;
40635;SDS011;26642;55.766;37.828;2024-03-25T00:35:59;1.17;;;1.05;;
40635;SDS011;26642;55.766;37.828;2024-03-25T00:38:25;0.68;;;0.68;;
40635;SDS011;26642;55.766;37.828;2024-03-25T00:40:52;1.23;;;1.00;;
40635;SDS011;26642;55.766;37.828;2024-03-25T00:43:18;0.70;;;0.70;;
40635;SDS011;26642;55.766;37.828;2024-03-25T00:45:45;1.33;;;0.75;;
40635;SDS011;26642;55.766;37.828;2024-03-25T00:48:11;1.38;;;0.60;;
40635;SDS011;26642;55.766;37.828;2024-03-25T00:50:37;0.70;;;0.70;;
40635;SDS011;26642;55.766;37.828;2024-03-25T00:53:03;0.30;;;0.30;;
40635;SDS011;26642;55.766;37.828;2024-03-25T00:55:29;0.65;;;0.50;;
40635;SDS011;26642;55.766;37.828;2024-03-25T00:57:56;1.33;;;0.50;;
40635;SDS011;26642;55.766;37.828;2024-03-25T01:00:22;0.80;;;0.40;;
40635;SDS011;26642;55.766;37.828;2024-03-25T01:02:47;0.25;;;0.25;;
40635;SDS011;26642;55.766;37.828;2024-03-25T01:05:13;0.55;;;0.50;;
40635;SDS011;26642;55.766;37.828;2024-03-25T01:07:39;0.80;;;0.30;;
40635;SDS011;26642;55.766;37.828;2024-03-25T01:10:06;0.38;;;0.30;;
40635;SDS011;26642;55.766;37.828;2024-03-25T01:12:32;1.58;;;0.45;;
40635;SDS011;26642;55.766;37.828;2024-03-25T01:14:58;0.30;;;0.30;;
40635;SDS011;26642;55.766;37.828;2024-03-25T01:17:24;0.20;;;0.20;;
40635;SDS011;26642;55.766;37.828;2024-03-25T01:19:50;0.80;;;0.38;;
40635;SDS011;26642;55.766;37.828;2024-03-25T01:22:16;0.20;;;0.20;;
40635;SDS011;26642;55.766;37.828;2024-03-25T01:24:42;0.70;;;0.20;;
40635;SDS011;26642;55.766;37.828;2024-03-25T01:27:08;2.17;;;0.25;;
40635;SDS011;26642;55.766;37.828;2024-03-25T01:29:34;0.88;;;0.30;;
40635;SDS011;26642;55.766;37.828;2024-03-25T01:32:00;0.43;;;0.30;;
40635;SDS011;26642;55.766;37.828;2024-03-25T01:34:27;0.45;;;0.30;;
40635;SDS011;26642;55.766;37.828;2024-03-25T01:36:53;1.75;;;0.20;;
40635;SDS011;26642;55.766;37.828;2024-03-25T01:39:19;0.50;;;0.30;;
40635;SDS011;26642;55.766;37.828;2024-03-25T01:41:45;0.45;;;0.20;;
40635;SDS011;26642;55.766;37.828;2024-03-25T01:44:11;0.20;;;0.20;;
40635;SDS011;26642;55.766;37.828;2024-03-25T01:46:37;0.22;;;0.20;;
40635;SDS011;26642;55.766;37.828;2024-03-25T01:49:04;0.80;;;0.25;;
40635;SDS011;26642;55.766;37.828;2024-03-25T01:51:31;1.00;;;0.30;;
40635;SDS011;26642;55.766;37.828;2024-03-25T01:53:59;0.20;;;0.20;;
40635;SDS011;26642;55.766;37.828;2024-03-25T01:56:26;0.10;;;0.10;;
40635;SDS011;26642;55.766;37.828;2024-03-25T01:58:55;0.47;;;0.10;;
40635;SDS011;26642;55.766;37.828;2024-03-25T02:01:21;0.10;;;0.10;;
40635;SDS011;26642;55.766;37.828;2024-03-25T02:03:48;0.10;;;0.10;;
40635;SDS011;26642;55.766;37.828;2024-03-25T02:06:17;0.40;;;0.20;;
40635;SDS011;26642;55.766;37.828;2024-03-25T02:08:45;0.90;;;0.32;;
40635;SDS011;26642;55.766;37.828;2024-03-25T02:11:12;0.30;;;0.20;;
40635;SDS011;26642;55.766;37.828;2024-03-25T02:13:39;0.22;;;0.10;;
40635;SDS011;26642;55.766;37.828;2024-03-25T02:16:05;1.10;;;0.20;;
40635;SDS011;26642;55.766;37.828;2024-03-25T02:18:32;0.10;;;0.10;;
40635;SDS011;26642;55.766;37.828;2024-03-25T02:20:58;0.10;;;0.10;;
40635;SDS011;26642;55.766;37.828;2024-03-25T02:23:28;0.20;;;0.20;;
40635;SDS011;26642;55.766;37.828;2024-03-25T02:25:54;0.43;;;0.10;;
40635;SDS011;26642;55.766;37.828;2024-03-25T02:28:20;0.40;;;0.10;;
40635;SDS011;26642;55.766;37.828;2024-03-25T02:30:47;0.10;;;0.10;;
40635;SDS011;26642;55.766;37.828;2024-03-25T02:33:13;0.45;;;0.10;;
40635;SDS011;26642;55.766;37.828;2024-03-25T02:35:40;0.30;;;0.10;;
40635;SDS011;26642;55.766;37.828;2024-03-25T02:38:09;1.00;;;0.10;;
40635;SDS011;26642;55.766;37.828;2024-03-25T02:40:35;0.75;;;0.10;;
40635;SDS011;26642;55.766;37.828;2024-03-25T02:43:03;0.65;;;0.10;;
40635;SDS011;26642;55.766;37.828;2024-03-25T02:45:29;0.20;;;0.10;;
40635;SDS011;26642;55.766;37.828;2024-03-25T02:47:55;0.52;;;0.10;;
40635;SDS011;26642;55.766;37.828;2024-03-25T02:50:21;0.17;;;0.10;;
40635;SDS011;26642;55.766;37.828;2024-03-25T02:52:47;0.10;;;0.10;;
40635;SDS011;26642;55.766;37.828;2024-03-25T02:55:13;0.10;;;0.10;;
40635;SDS011;26642;55.766;37.828;2024-03-25T02:57:39;0.10;;;0.10;;
40635;SDS011;26642;55.766;37.828;2024-03-25T03:00:05;0.52;;;0.20;;
40635;SDS011;26642;55.766;37.828;2024-03-25T03:02:34;0.85;;;0.10;;
40635;SDS011;26642;55.766;37.828;2024-03-25T03:05:00;0.25;;;0.10;;
40635;SDS011;26642;55.766;37.828;2024-03-25T03:07:27;1.02;;;0.10;;
40635;SDS011;26642;55.766;37.828;2024-03-25T03:09:53;0.10;;;0.10;;
40635;SDS011;26642;55.766;37.828;2024-03-25T03:12:20;0.13;;;0.10;;
40635;SDS011;26642;55.766;37.828;2024-03-25T03:14:46;0.60;;;0.20;;
40635;SDS011;26642;55.766;37.828;2024-03-25T03:17:12;1.27;;;0.20;;
40635;SDS011;26642;55.766;37.828;2024-03-25T03:19:38;0.30;;;0.10;;
40635;SDS011;26642;55.766;37.828;2024-03-25T03:22:04;0.30;;;0.10;;
40635;SDS011;26642;55.766;37.828;2024-03-25T03:24:30;0.20;;;0.20;;
40635;SDS011;26642;55.766;37.828;2024-03-25T03:26:56;0.20;;;0.20;;
40635;SDS011;26642;55.766;37.828;2024-03-25T03:29:22;1.17;;;0.10;;
40635;SDS011;26642;55.766;37.828;2024-03-25T03:31:48;0.28;;;0.20;;
40635;SDS011;26642;55.766;37.828;2024-03-25T03:34:16;0.28;;;0.20;;
40635;SDS011;26642;55.766;37.828;2024-03-25T03:36:42;0.32;;;0.10;;
40635;SDS011;26642;55.766;37.828;2024-03-25T03:39:08;0.10;;;0.10;;
40635;SDS011;26642;55.766;37.828;2024-03-25T03:41:34;0.10;;;0.10;;
40635;SDS011;26642;55.766;37.828;2024-03-25T03:44:01;0.30;;;0.20;;
40635;SDS011;26642;55.766;37.828;2024-03-25T03:46:27;0.47;;;0.10;;
40635;SDS011;26642;55.766;37.828;2024-03-25T03:48:53;0.47;;;0.30;;
40635;SDS011;26642;55.766;37.828;2024-03-25T03:51:19;0.60;;;0.20;;
40635;SDS011;26642;55.766;37.828;2024-03-25T03:53:45;0.22;;;0.20;;
40635;SDS011;26642;55.766;37.828;2024-03-25T03:56:11;0.30;;;0.20;;
40635;SDS011;26642;55.766;37.828;2024-03-25T03:58:37;1.75;;;0.20;;
40635;SDS011;26642;55.766;37.828;2024-03-25T04:01:03;0.10;;;0.10;;
40635;SDS011;26642;55.766;37.828;2024-03-25T04:03:30;0.30;;;0.30;;
40635;SDS011;26642;55.766;37.828;2024-03-25T04:05:57;0.20;;;0.20;;
40635;SDS011;26642;55.766;37.828;2024-03-25T04:08:24;0.50;;;0.28;;
40635;SDS011;26642;55.766;37.828;2024-03-25T04:10:51;0.30;;;0.20;;
40635;SDS011;26642;55.766;37.828;2024-03-25T04:13:18;1.13;;;0.20;;
40635;SDS011;26642;55.766;37.828;2024-03-25T04:15:45;0.10;;;0.10;;
40635;SDS011;26642;55.766;37.828;2024-03-25T04:18:12;0.20;;;0.20;;
40635;SDS011;26642;55.766;37.828;2024-03-25T04:20:39;0.38;;;0.30;;
40635;SDS011;26642;55.766;37.828;2024-03-25T04:23:06;0.20;;;0.20;;
40635;SDS011;26642;55.766;37.828;2024-03-25T04:25:33;0.40;;;0.30;;
40635;SDS011;26642;55.766;37.828;2024-03-25T04:28:03;0.22;;;0.20;;
40635;SDS011;26642;55.766;37.828;2024-03-25T04:30:30;0.30;;;0.30;;
40635;SDS011;26642;55.766;37.828;2024-03-25T04:32:57;1.33;;;0.30;;
40635;SDS011;26642;55.766;37.828;2024-03-25T04:35:24;0.35;;;0.20;;
40635;SDS011;26642;55.766;37.828;2024-03-25T04:37:52;0.20;;;0.20;;
40635;SDS011;26642;55.766;37.828;2024-03-25T04:40:20;0.40;;;0.22;;
40635;SDS011;26642;55.766;37.828;2024-03-25T04:42:47;0.43;;;0.30;;
40635;SDS011;26642;55.766;37.828;2024-03-25T04:45:14;0.50;;;0.30;;
40635;SDS011;26642;55.766;37.828;2024-03-25T04:47:41;1.42;;;0.50;;
40635;SDS011;26642;55.766;37.828;2024-03-25T04:50:07;1.75;;;0.75;;
40635;SDS011;26642;55.766;37.828;2024-03-25T04:52:34;1.40;;;0.85;;
40635;SDS011;26642;55.766;37.828;2024-03-25T04:55:01;1.48;;;1.30;;
40635;SDS011;26642;55.766;37.828;2024-03-25T04:57:27;1.63;;;1.20;;
40635;SDS011;26642;55.766;37.828;2024-03-25T04:59:54;1.00;;;0.90;;
40635;SDS011;26642;55.766;37.828;2024-03-25T05:02:20;1.35;;;0.90;;
40635;SDS011;26642;55.766;37.828;2024-03-25T05:04:46;2.13;;;1.05;;
40635;SDS011;26642;55.766;37.828;2024-03-25T05:07:13;1.90;;;1.00;;
40635;SDS011;26642;55.766;37.828;2024-03-25T05:09:39;3.20;;;1.08;;
40635;SDS011;26642;55.766;37.828;2024-03-25T05:12:06;3.00;;;1.33;;
40635;SDS011;26642;55.766;37.828;2024-03-25T05:14:32;3.58;;;1.55;;
40635;SDS011;26642;55.766;37.828;2024-03-25T05:16:58;2.15;;;1.70;;
40635;SDS011;26642;55.766;37.828;2024-03-25T05:19:27;3.60;;;1.60;;
40635;SDS011;26642;55.766;37.828;2024-03-25T05:21:53;3.72;;;2.45;;
40635;SDS011;26642;55.766;37.828;2024-03-25T05:24:19;3.63;;;2.08;;
40635;SDS011;26642;55.766;37.828;2024-03-25T05:26:46;2.85;;;1.60;;
40635;SDS011;26642;55.766;37.828;2024-03-25T05:29:12;2.78;;;1.48;;
40635;SDS011;26642;55.766;37.828;2024-03-25T05:31:39;4.38;;;1.40;;
40635;SDS011;26642;55.766;37.828;2024-03-25T05:34:06;2.88;;;1.10;;
40635;SDS011;26642;55.766;37.828;2024-03-25T05:36:35;2.35;;;1.20;;
40635;SDS011;26642;55.766;37.828;2024-03-25T05:39:02;2.03;;;0.93;;
40635;SDS011;26642;55.766;37.828;2024-03-25T05:41:29;1.00;;;0.73;;
40635;SDS011;26642;55.766;37.828;2024-03-25T05:43:57;1.85;;;1.00;;
40635;SDS011;26642;55.766;37.828;2024-03-25T05:46:24;1.77;;;1.10;;
40635;SDS011;26642;55.766;37.828;2024-03-25T05:48:51;1.75;;;0.80;;
40635;SDS011;26642;55.766;37.828;2024-03-25T05:51:19;2.17;;;0.90;;
40635;SDS011;26642;55.766;37.828;2024-03-25T05:53:46;3.20;;;0.77;;
40635;SDS011;26642;55.766;37.828;2024-03-25T05:56:13;0.70;;;0.70;;
40635;SDS011;26642;55.766;37.828;2024-03-25T05:58:41;1.35;;;0.77;;
40635;SDS011;26642;55.766;37.828;2024-03-25T06:01:08;1.90;;;0.77;;
40635;SDS011;26642;55.766;37.828;2024-03-25T06:03:35;1.17;;;0.65;;
40635;SDS011;26642;55.766;37.828;2024-03-25T06:06:02;1.98;;;0.60;;
40635;SDS011;26642;55.766;37.828;2024-03-25T06:08:30;2.15;;;0.90;;
40635;SDS011;26642;55.766;37.828;2024-03-25T06:11:00;2.92;;;0.52;;
40635;SDS011;26642;55.766;37.828;2024-03-25T06:13:28;1.90;;;0.73;;
40635;SDS011;26642;55.766;37.828;2024-03-25T06:15:55;0.90;;;0.40;;
40635;SDS011;26642;55.766;37.828;2024-03-25T06:18:23;1.60;;;0.75;;
40635;SDS011;26642;55.766;37.828;2024-03-25T06:20:51;1.20;;;0.50;;
40635;SDS011;26642;55.766;37.828;2024-03-25T06:23:25;0.65;;;0.60;;
40635;SDS011;26642;55.766;37.828;2024-03-25T06:25:53;1.33;;;0.50;;
40635;SDS011;26642;55.766;37.828;2024-03-25T06:28:21;1.77;;;0.73;;
40635;SDS011;26642;55.766;37.828;2024-03-25T06:30:49;1.17;;;0.60;;
40635;SDS011;26642;55.766;37.828;2024-03-25T06:33:35;0.98;;;0.60;;
40635;SDS011;26642;55.766;37.828;2024-03-25T06:43:40;0.70;;;0.70;;
40635;SDS011;26642;55.766;37.828;2024-03-25T06:46:07;1.30;;;0.68;;
40635;SDS011;26642;55.766;37.828;2024-03-25T06:48:34;0.88;;;0.50;;
40635;SDS011;26642;55.766;37.828;2024-03-25T06:53:45;0.97;;;0.60;;
40635;SDS011;26642;55.766;37.828;2024-03-25T06:56:11;0.85;;;0.40;;
40635;SDS011;26642;55.766;37.828;2024-03-25T06:58:38;0.60;;;0.32;;
40635;SDS011;26642;55.766;37.828;2024-03-25T07:01:05;0.63;;;0.52;;
40635;SDS011;26642;55.766;37.828;2024-03-25T07:03:32;1.17;;;0.60;;
40635;SDS011;26642;55.766;37.828;2024-03-25T07:05:59;1.17;;;0.50;;
40635;SDS011;26642;55.766;37.828;2024-03-25T07:08:29;1.10;;;0.50;;
40635;SDS011;26642;55.766;37.828;2024-03-25T07:10:58;1.23;;;0.60;;
40635;SDS011;26642;55.766;37.828;2024-03-25T07:13:25;1.63;;;0.50;;
40635;SDS011;26642;55.766;37.828;2024-03-25T07:15:51;1.67;;;0.90;;
40635;SDS011;26642;55.766;37.828;2024-03-25T07:18:36;0.70;;;0.60;;
40635;SDS011;26642;55.766;37.828;2024-03-25T07:21:03;1.00;;;0.68;;
40635;SDS011;26642;55.766;37.828;2024-03-25T07:23:29;1.42;;;0.70;;
40635;SDS011;26642;55.766;37.828;2024-03-25T07:25:55;3.70;;;0.88;;
40635;SDS011;26642;55.766;37.828;2024-03-25T07:28:22;0.82;;;0.50;;
40635;SDS011;26642;55.766;37.828;2024-03-25T07:30:49;1.48;;;1.00;;
40635;SDS011;26642;55.766;37.828;2024-03-25T07:38:26;1.52;;;0.90;;
40635;SDS011;26642;55.766;37.828;2024-03-25T07:40:52;2.38;;;0.70;;
40635;SDS011;26642;55.766;37.828;2024-03-25T07:43:18;1.98;;;0.95;;
40635;SDS011;26642;55.766;37.828;2024-03-25T07:45:44;1.38;;;0.77;;
40635;SDS011;26642;55.766;37.828;2024-03-25T07:48:10;0.75;;;0.73;;
40635;SDS011;26642;55.766;37.828;2024-03-25T07:50:36;2.30;;;0.88;;
40635;SDS011;26642;55.766;37.828;2024-03-25T07:53:03;1.17;;;0.65;;
40635;SDS011;26642;55.766;37.828;2024-03-25T07:55:29;1.52;;;0.65;;
40635;SDS011;26642;55.766;37.828;2024-03-25T07:57:56;3.38;;;0.80;;
40635;SDS011;26642;55.766;37.828;2024-03-25T08:00:22;2.58;;;0.90;;
40635;SDS011;26642;55.766;37.828;2024-03-25T08:02:49;1.85;;;1.00;;
40635;SDS011;26642;55.766;37.828;2024-03-25T08:05:15;2.75;;;1.00;;
40635;SDS011;26642;55.766;37.828;2024-03-25T08:07:41;1.70;;;0.80;;
40635;SDS011;26642;55.766;37.828;2024-03-25T08:10:07;1.27;;;0.82;;
40635;SDS011;26642;55.766;37.828;2024-03-25T08:12:34;1.40;;;0.80;;
40635;SDS011;26642;55.766;37.828;2024-03-25T08:15:00;1.70;;;1.20;;
40635;SDS011;26642;55.766;37.828;2024-03-25T08:17:25;1.88;;;1.13;;
40635;SDS011;26642;55.766;37.828;2024-03-25T08:19:51;2.50;;;0.90;;
40635;SDS011;26642;55.766;37.828;2024-03-25T08:22:17;2.45;;;1.10;;
40635;SDS011;26642;55.766;37.828;2024-03-25T08:24:45;2.90;;;1.08;;
40635;SDS011;26642;55.766;37.828;2024-03-25T08:27:11;0.80;;;0.80;;
40635;SDS011;26642;55.766;37.828;2024-03-25T08:29:37;2.35;;;1.10;;
40635;SDS011;26642;55.766;37.828;2024-03-25T08:32:03;2.88;;;1.10;;
40635;SDS011;26642;55.766;37.828;2024-03-25T08:34:30;2.72;;;1.35;;
40635;SDS011;26642;55.766;37.828;2024-03-25T08:36:56;1.67;;;1.00;;
40635;SDS011;26642;55.766;37.828;2024-03-25T08:39:22;1.83;;;1.10;;
40635;SDS011;26642;55.766;37.828;2024-03-25T08:41:48;1.45;;;0.95;;
40635;SDS011;26642;55.766;37.828;2024-03-25T08:44:14;2.75;;;1.05;;
40635;SDS011;26642;55.766;37.828;2024-03-25T08:46:40;2.30;;;1.27;;
40635;SDS011;26642;55.766;37.828;2024-03-25T08:49:06;2.55;;;1.17;;
40635;SDS011;26642;55.766;37.828;2024-03-25T08:51:32;4.40;;;1.00;;
40635;SDS011;26642;55.766;37.828;2024-03-25T08:53:59;1.67;;;0.93;;
40635;SDS011;26642;55.766;37.828;2024-03-25T08:56:25;4.57;;;1.45;;
40635;SDS011;26642;55.766;37.828;2024-03-25T08:58:51;1.23;;;1.02;;
40635;SDS011;26642;55.766;37.828;2024-03-25T09:01:20;2.55;;;0.95;;
40635;SDS011;26642;55.766;37.828;2024-03-25T09:03:46;1.38;;;1.13;;
40635;SDS011;26642;55.766;37.828;2024-03-25T09:06:13;1.38;;;0.88;;
40635;SDS011;26642;55.766;37.828;2024-03-25T09:08:41;7.75;;;1.40;;
40635;SDS011;26642;55.766;37.828;2024-03-25T09:11:25;2.05;;;0.85;;
40635;SDS011;26642;55.766;37.828;2024-03-25T09:13:52;2.38;;;0.93;;
40635;SDS011;26642;55.766;37.828;2024-03-25T09:16:37;1.17;;;0.77;;
40635;SDS011;26642;55.766;37.828;2024-03-25T09:19:03;1.65;;;1.20;;
40635;SDS011;26642;55.766;37.828;2024-03-25T09:21:30;2.28;;;1.08;;
40635;SDS011;26642;55.766;37.828;2024-03-25T09:23:56;1.45;;;1.10;;
40635;SDS011;26642;55.766;37.828;2024-03-25T09:26:23;1.10;;;0.82;;
40635;SDS011;26642;55.766;37.828;2024-03-25T09:28:49;2.53;;;1.10;;
40635;SDS011;26642;55.766;37.828;2024-03-25T09:31:15;3.22;;;1.58;;
40635;SDS011;26642;55.766;37.828;2024-03-25T09:33:41;2.70;;;1.25;;
40635;SDS011;26642;55.766;37.828;2024-03-25T09:36:09;2.22;;;1.13;;
40635;SDS011;26642;55.766;37.828;2024-03-25T09:38:36;1.73;;;0.90;;
40635;SDS011;26642;55.766;37.828;2024-03-25T09:41:02;1.88;;;1.38;;
40635;SDS011;26642;55.766;37.828;2024-03-25T09:43:45;2.35;;;1.13;;
40635;SDS011;26642;55.766;37.828;2024-03-25T09:46:15;2.72;;;1.33;;
40635;SDS011;26642;55.766;37.828;2024-03-25T09:48:42;3.03;;;1.30;;
40635;SDS011;26642;55.766;37.828;2024-03-25T09:51:11;3.97;;;1.63;;
40635;SDS011;26642;55.766;37.828;2024-03-25T09:53:37;2.72;;;1.55;;
40635;SDS011;26642;55.766;37.828;2024-03-25T09:56:03;2.47;;;1.08;;
40635;SDS011;26642;55.766;37.828;2024-03-25T09:58:30;2.88;;;1.20;;
40635;SDS011;26642;55.766;37.828;2024-03-25T10:00:59;3.20;;;1.35;;
40635;SDS011;26642;55.766;37.828;2024-03-25T10:03:25;3.97;;;1.17;;
40635;SDS011;26642;55.766;37.828;2024-03-25T10:05:51;5.32;;;1.42;;
40635;SDS011;26642;55.766;37.828;2024-03-25T10:08:23;2.83;;;1.13;;
40635;SDS011;26642;55.766;37.828;2024-03-25T10:10:55;2.33;;;1.33;;
40635;SDS011;26642;55.766;37.828;2024-03-25T10:13:22;3.97;;;1.40;;
40635;SDS011;26642;55.766;37.828;2024-03-25T10:15:48;2.80;;;1.20;;
40635;SDS011;26642;55.766;37.828;2024-03-25T10:18:14;3.08;;;1.50;;
40635;SDS011;26642;55.766;37.828;2024-03-25T10:20:50;3.50;;;1.40;;
40635;SDS011;26642;55.766;37.828;2024-03-25T10:23:20;3.40;;;1.40;;
40635;SDS011;26642;55.766;37.828;2024-03-25T10:25:48;2.60;;;1.45;;
40635;SDS011;26642;55.766;37.828;2024-03-25T10:28:14;1.73;;;1.40;;
40635;SDS011;26642;55.766;37.828;2024-03-25T10:30:40;1.63;;;1.20;;
40635;SDS011;26642;55.766;37.828;2024-03-25T10:33:07;2.92;;;1.40;;
40635;SDS011;26642;55.766;37.828;2024-03-25T10:35:34;3.42;;;1.10;;
40635;SDS011;26642;55.766;37.828;2024-03-25T10:38:04;3.40;;;1.42;;
40635;SDS011;26642;55.766;37.828;2024-03-25T10:40:32;3.15;;;1.45;;
40635;SDS011;26642;55.766;37.828;2024-03-25T10:43:09;4.88;;;1.33;;
40635;SDS011;26642;55.766;37.828;2024-03-25T10:45:42;3.58;;;1.40;;
40635;SDS011;26642;55.766;37.828;2024-03-25T10:48:21;2.53;;;1.27;;
40635;SDS011;26642;55.766;37.828;2024-03-25T10:50:49;2.05;;;1.20;;
40635;SDS011;26642;55.766;37.828;2024-03-25T10:53:17;4.30;;;1.58;;
40635;SDS011;26642;55.766;37.828;2024-03-25T10:55:48;2.03;;;1.27;;
40635;SDS011;26642;55.766;37.828;2024-03-25T10:58:18;2.28;;;1.33;;
40635;SDS011;26642;55.766;37.828;2024-03-25T11:00:48;2.75;;;1.23;;
40635;SDS011;26642;55.766;37.828;2024-03-25T11:03:16;2.22;;;1.20;;
40635;SDS011;26642;55.766;37.828;2024-03-25T11:05:42;2.92;;;1.30;;
40635;SDS011;26642;55.766;37.828;2024-03-25T11:08:15;3.72;;;1.40;;
40635;SDS011;26642;55.766;37.828;2024-03-25T11:10:45;3.05;;;1.38;;
40635;SDS011;26642;55.766;37.828;2024-03-25T11:13:13;1.98;;;1.27;;
40635;SDS011;26642;55.766;37.828;2024-03-25T11:15:43;1.75;;;1.20;;
40635;SDS011;26642;55.766;37.828;2024-03-25T11:18:14;4.10;;;1.30;;
40635;SDS011;26642;55.766;37.828;2024-03-25T11:20:42;3.53;;;1.42;;
40635;SDS011;26642;55.766;37.828;2024-03-25T11:23:11;2.78;;;1.20;;
40635;SDS011;26642;55.766;37.828;2024-03-25T11:25:39;3.05;;;1.20;;
40635;SDS011;26642;55.766;37.828;2024-03-25T11:28:06;2.17;;;1.48;;
40635;SDS011;26642;55.766;37.828;2024-03-25T11:30:52;3.65;;;1.30;;
40635;SDS011;26642;55.766;37.828;2024-03-25T11:33:18;3.03;;;1.55;;
40635;SDS011;26642;55.766;37.828;2024-03-25T11:35:48;4.75;;;2.50;;
40635;SDS011;26642;55.766;37.828;2024-03-25T11:38:15;3.65;;;2.90;;
40635;SDS011;26642;55.766;37.828;2024-03-25T11:40:42;3.78;;;2.30;;
40635;SDS011;26642;55.766;37.828;2024-03-25T11:43:10;3.38;;;1.70;;
40635;SDS011;26642;55.766;37.828;2024-03-25T11:45:42;3.03;;;2.00;;
40635;SDS011;26642;55.766;37.828;2024-03-25T11:48:09;5.70;;;2.08;;
40635;SDS011;26642;55.766;37.828;2024-03-25T11:50:35;3.00;;;1.70;;
40635;SDS011;26642;55.766;37.828;2024-03-25T11:53:03;2.85;;;1.50;;
40635;SDS011;26642;55.766;37.828;2024-03-25T11:55:30;4.65;;;1.60;;
40635;SDS011;26642;55.766;37.828;2024-03-25T11:57:56;3.85;;;1.75;;
40635;SDS011;26642;55.766;37.828;2024-03-25T12:00:23;2.47;;;1.50;;
40635;SDS011;26642;55.766;37.828;2024-03-25T12:02:49;3.97;;;1.60;;
40635;SDS011;26642;55.766;37.828;2024-03-25T12:05:17;3.45;;;1.60;;
40635;SDS011;26642;55.766;37.828;2024-03-25T12:07:44;3.58;;;1.40;;
40635;SDS011;26642;55.766;37.828;2024-03-25T12:10:10;4.47;;;1.52;;
40635;SDS011;26642;55.766;37.828;2024-03-25T12:12:56;4.72;;;1.50;;
40635;SDS011;26642;55.766;37.828;2024-03-25T12:15:22;2.50;;;1.67;;
40635;SDS011;26642;55.766;37.828;2024-03-25T12:17:49;2.28;;;1.30;;
40635;SDS011;26642;55.766;37.828;2024-03-25T12:20:17;2.05;;;1.20;;
40635;SDS011;26642;55.766;37.828;2024-03-25T12:22:43;3.28;;;1.40;;
40635;SDS011;26642;55.766;37.828;2024-03-25T12:25:09;3.65;;;1.50;;
40635;SDS011;26642;55.766;37.828;2024-03-25T12:27:36;2.50;;;1.48;;
40635;SDS011;26642;55.766;37.828;2024-03-25T12:30:04;2.72;;;1.38;;
40635;SDS011;26642;55.766;37.828;2024-03-25T12:35:11;3.63;;;1.88;;
40635;SDS011;26642;55.766;37.828;2024-03-25T12:37:39;3.03;;;1.50;;
40635;SDS011;26642;55.766;37.828;2024-03-25T12:40:06;2.78;;;1.27;;
40635;SDS011;26642;55.766;37.828;2024-03-25T12:42:34;3.20;;;1.38;;
40635;SDS011;26642;55.766;37.828;2024-03-25T12:45:22;3.03;;;1.60;;
40635;SDS011;26642;55.766;37.828;2024-03-25T12:47:49;3.25;;;1.75;;
40635;SDS011;26642;55.766;37.828;2024-03-25T12:50:34;2.33;;;1.55;;
40635;SDS011;26642;55.766;37.828;2024-03-25T12:53:01;3.55;;;1.70;;
40635;SDS011;26642;55.766;37.828;2024-03-25T12:55:29;2.47;;;1.70;;
40635;SDS011;26642;55.766;37.828;2024-03-25T12:57:55;4.63;;;1.42;;
40635;SDS011;26642;55.766;37.828;2024-03-25T13:00:23;3.33;;;1.70;;
40635;SDS011;26642;55.766;37.828;2024-03-25T13:02:49;3.13;;;1.80;;
40635;SDS011;26642;55.766;37.828;2024-03-25T13:05:16;3.20;;;1.63;;
40635;SDS011;26642;55.766;37.828;2024-03-25T13:07:42;3.88;;;1.73;;
40635;SDS011;26642;55.766;37.828;2024-03-25T13:10:08;2.22;;;1.50;;
40635;SDS011;26642;55.766;37.828;2024-03-25T13:12:36;2.90;;;1.50;;
40635;SDS011;26642;55.766;37.828;2024-03-25T13:15:02;5.65;;;1.85;;
40635;SDS011;26642;55.766;37.828;2024-03-25T13:17:29;3.42;;;1.45;;
40635;SDS011;26642;55.766;37.828;2024-03-25T13:19:55;3.10;;;1.45;;
40635;SDS011;26642;55.766;37.828;2024-03-25T13:22:21;2.50;;;1.40;;
40635;SDS011;26642;55.766;37.828;2024-03-25T13:24:47;2.55;;;1.60;;
40635;SDS011;26642;55.766;37.828;2024-03-25T13:27:13;4.38;;;1.75;;
40635;SDS011;26642;55.766;37.828;2024-03-25T13:29:39;2.67;;;1.30;;
40635;SDS011;26642;55.766;37.828;2024-03-25T13:32:05;2.45;;;1.50;;
40635;SDS011;26642;55.766;37.828;2024-03-25T13:34:31;3.53;;;1.60;;
40635;SDS011;26642;55.766;37.828;2024-03-25T13:36:57;2.45;;;1.73;;
40635;SDS011;26642;55.766;37.828;2024-03-25T13:39:23;2.78;;;1.65;;
40635;SDS011;26642;55.766;37.828;2024-03-25T13:41:49;2.22;;;1.65;;
40635;SDS011;26642;55.766;37.828;2024-03-25T13:44:15;3.85;;;1.60;;
40635;SDS011;26642;55.766;37.828;2024-03-25T13:46:45;3.05;;;1.60;;
40635;SDS011;26642;55.766;37.828;2024-03-25T13:49:11;2.88;;;1.55;;
40635;SDS011;26642;55.766;37.828;2024-03-25T13:51:37;5.35;;;1.88;;
40635;SDS011;26642;55.766;37.828;2024-03-25T13:54:03;3.55;;;1.50;;
40635;SDS011;26642;55.766;37.828;2024-03-25T13:56:30;2.97;;;1.83;;
40635;SDS011;26642;55.766;37.828;2024-03-25T13:58:56;3.25;;;1.88;;
40635;SDS011;26642;55.766;37.828;2024-03-25T14:01:23;3.83;;;1.88;;
40635;SDS011;26642;55.766;37.828;2024-03-25T14:03:50;4.05;;;1.80;;
40635;SDS011;26642;55.766;37.828;2024-03-25T14:06:17;3.03;;;1.98;;
40635;SDS011;26642;55.766;37.828;2024-03-25T14:08:44;3.95;;;2.30;;
40635;SDS011;26642;55.766;37.828;2024-03-25T14:11:12;3.50;;;1.70;;
40635;SDS011;26642;55.766;37.828;2024-03-25T14:13:39;3.47;;;1.50;;
40635;SDS011;26642;55.766;37.828;2024-03-25T14:16:05;3.75;;;1.90;;
40635;SDS011;26642;55.766;37.828;2024-03-25T14:18:32;4.00;;;2.15;;
40635;SDS011;26642;55.766;37.828;2024-03-25T14:20:59;5.20;;;2.00;;
40635;SDS011;26642;55.766;37.828;2024-03-25T14:23:26;4.65;;;1.80;;
40635;SDS011;26642;55.766;37.828;2024-03-25T14:25:53;2.50;;;1.50;;
40635;SDS011;26642;55.766;37.828;2024-03-25T14:28:21;4.72;;;2.13;;
40635;SDS011;26642;55.766;37.828;2024-03-25T14:30:48;4.05;;;2.85;;
40635;SDS011;26642;55.766;37.828;2024-03-25T14:33:16;7.95;;;5.22;;
40635;SDS011;26642;55.766;37.828;2024-03-25T14:35:43;6.30;;;4.07;;
40635;SDS011;26642;55.766;37.828;2024-03-25T14:38:11;7.35;;;3.53;;
40635;SDS011;26642;55.766;37.828;2024-03-25T14:40:38;7.15;;;4.03;;
40635;SDS011;26642;55.766;37.828;2024-03-25T14:43:04;8.48;;;5.68;;
40635;SDS011;26642;55.766;37.828;2024-03-25T14:45:32;11.18;;;6.47;;
40635;SDS011;26642;55.766;37.828;2024-03-25T14:47:59;10.00;;;5.75;;
40635;SDS011;26642;55.766;37.828;2024-03-25T14:50:26;6.93;;;4.22;;
40635;SDS011;26642;55.766;37.828;2024-03-25T14:52:54;7.53;;;3.97;;